createdAt,value
2018-01-21T00:02:28.205Z,100253.31
2018-01-21T00:04:56.504Z,100258.58
2018-01-21T00:07:24.835Z,100260.66
2018-01-21T00:09:53.176Z,100263.40
2018-01-21T00:12:21.491Z,100271.30
2018-01-21T00:14:49.822Z,100273.16
2018-01-21T00:17:18.143Z,100281.06
2018-01-21T00:19:46.478Z,100283.19
2018-01-21T00:22:32.748Z,100288.69
2018-01-21T00:25:01.099Z,100286.20
2018-01-21T00:27:29.400Z,100287.85
2018-01-21T00:29:58.731Z,100287.32
2018-01-21T00:32:27.066Z,100292.23
2018-01-21T00:34:55.385Z,100311.38
2018-01-21T00:37:23.741Z,100305.18
2018-01-21T00:39:52.116Z,100309.34
2018-01-21T00:42:20.410Z,100306.77
2018-01-21T00:44:49.068Z,100323.38
2018-01-21T00:47:17.396Z,100320.34
2018-01-21T00:49:45.708Z,100320.19
2018-01-21T00:52:14.058Z,100327.13
2018-01-21T00:54:43.170Z,100339.91
2018-01-21T00:57:11.507Z,100341.66
2018-01-21T00:59:39.831Z,100341.14
2018-01-21T01:02:08.124Z,100343.53
2018-01-21T01:04:36.454Z,100345.32
2018-01-21T01:07:05.056Z,100349.37
2018-01-21T01:09:33.383Z,100352.58
2018-01-21T01:12:01.676Z,100359.05
2018-01-21T01:14:30.006Z,100358.82
2018-01-21T01:16:58.316Z,100357.42
2018-01-21T01:19:26.610Z,100369.70
2018-01-21T01:21:54.923Z,100366.86
2018-01-21T01:24:23.252Z,100376.43
2018-01-21T01:26:51.595Z,100382.73
2018-01-21T01:29:20.352Z,100384.81
2018-01-21T01:31:48.678Z,100388.90
2018-01-21T01:34:16.988Z,100393.20
2018-01-21T01:36:45.333Z,100400.82
2018-01-21T01:39:13.639Z,100403.14
2018-01-21T01:41:41.923Z,100410.05
2018-01-21T01:44:10.284Z,100419.27
2018-01-21T01:46:39.407Z,100423.23
2018-01-21T01:49:07.734Z,100423.78
2018-01-21T01:51:36.555Z,100423.23
2018-01-21T01:54:04.879Z,100427.69
2018-01-21T01:56:34.008Z,100425.75
2018-01-21T01:59:02.339Z,100431.08
2018-01-21T02:01:30.661Z,100435.55
2018-01-21T02:03:58.995Z,100434.75
2018-01-21T02:06:27.345Z,100436.41
2018-01-21T02:08:55.651Z,100443.16
2018-01-21T02:11:23.969Z,100442.30
2018-01-21T02:13:52.521Z,100448.86
2018-01-21T02:16:21.588Z,100457.19
2018-01-21T02:18:49.922Z,100463.30
2018-01-21T02:21:18.264Z,100464.81
2018-01-21T02:23:46.600Z,100471.98
2018-01-21T02:26:14.926Z,100476.02
2018-01-21T02:28:44.014Z,100473.47
2018-01-21T02:31:12.373Z,100480.95
2018-01-21T02:33:40.669Z,100480.95
2018-01-21T02:36:09.101Z,100487.45
2018-01-21T02:38:37.436Z,100493.34
2018-01-21T02:41:06.567Z,100492.24
2018-01-21T02:43:34.889Z,100500.03
2018-01-21T02:46:03.214Z,100499.78
2018-01-21T02:48:31.509Z,100503.37
2018-01-21T02:50:59.860Z,100505.80
2018-01-21T02:53:28.956Z,100507.02
2018-01-21T02:55:57.264Z,100519.42
2018-01-21T02:58:25.793Z,100518.27
2018-01-21T03:00:54.125Z,100523.38
2018-01-21T03:03:22.421Z,100525.26
2018-01-21T03:05:50.761Z,100527.20
2018-01-21T03:08:19.080Z,100525.80
2018-01-21T03:10:47.393Z,100531.16
2018-01-21T03:13:16.497Z,100536.44
2018-01-21T03:15:45.581Z,100536.33
2018-01-21T03:18:14.677Z,100543.00
2018-01-21T03:20:44.103Z,100546.34
2018-01-21T03:23:12.420Z,100550.41
2018-01-21T03:25:40.735Z,100557.23
2018-01-21T03:28:09.061Z,100562.16
2018-01-21T03:30:37.372Z,100569.20
2018-01-21T03:33:05.698Z,100574.27
2018-01-21T03:35:34.047Z,100576.52
2018-01-21T03:38:02.346Z,100580.83
2018-01-21T03:40:31.419Z,100582.66
2018-01-21T03:43:00.228Z,100582.84
2018-01-21T03:45:29.336Z,100583.88
2018-01-21T03:47:57.637Z,100586.85
2018-01-21T03:50:25.961Z,100590.92
2018-01-21T03:52:54.253Z,100588.67
2018-01-21T03:55:23.333Z,100592.69
2018-01-21T03:57:51.664Z,100600.47
2018-01-21T04:00:19.988Z,100598.28
2018-01-21T04:02:48.296Z,100603.69
2018-01-21T04:05:16.838Z,100614.81
2018-01-21T04:07:45.140Z,100614.03
2018-01-21T04:10:14.205Z,100624.01
2018-01-21T04:12:43.017Z,100628.39
2018-01-21T04:15:11.329Z,100637.77
2018-01-21T04:17:39.632Z,100637.03
2018-01-21T04:20:08.026Z,100640.80
2018-01-21T04:22:36.327Z,100648.95
2018-01-21T04:25:04.636Z,100658.75
2018-01-21T04:27:33.213Z,100658.20
2018-01-21T04:30:02.297Z,100666.41
2018-01-21T04:32:31.381Z,100672.20
2018-01-21T04:34:59.714Z,100672.86
2018-01-21T04:37:28.032Z,100676.73
2018-01-21T04:39:56.350Z,100683.52
2018-01-21T04:42:24.667Z,100681.92
2018-01-21T04:44:52.974Z,100690.94
2018-01-21T04:47:21.329Z,100694.17
2018-01-21T04:49:50.224Z,100695.86
2018-01-21T04:52:18.568Z,100701.34
2018-01-21T04:54:46.895Z,100707.78
2018-01-21T04:57:15.207Z,100710.09
2018-01-21T04:59:44.275Z,100718.52
2018-01-21T05:02:12.584Z,100721.39
2018-01-21T05:04:40.944Z,100728.41
2018-01-21T05:07:09.249Z,100725.41
2018-01-21T05:09:37.549Z,100729.59
2018-01-21T05:12:06.272Z,100730.58
2018-01-21T05:14:34.594Z,100739.39
2018-01-21T05:17:02.925Z,100738.71
2018-01-21T05:19:31.254Z,100742.89
2018-01-21T05:21:59.564Z,100744.70
2018-01-21T05:24:28.628Z,100751.19
2018-01-21T05:26:56.963Z,100745.44
2018-01-21T05:29:25.284Z,100754.70
2018-01-21T05:31:53.609Z,100756.41
2018-01-21T05:34:22.218Z,100757.73
2018-01-21T05:36:51.296Z,100753.66
2018-01-21T05:39:19.584Z,100762.35
2018-01-21T05:41:48.691Z,100770.18
2018-01-21T05:44:17.754Z,100767.67
2018-01-21T05:46:46.820Z,100781.45
2018-01-21T05:49:15.152Z,100787.45
2018-01-21T05:51:44.228Z,100794.53
2018-01-21T05:54:12.544Z,100803.22
2018-01-21T05:56:41.080Z,100803.36
2018-01-21T05:59:09.426Z,100810.36
2018-01-21T06:01:37.776Z,100805.61
2018-01-21T06:04:06.930Z,100814.63
2018-01-21T06:06:35.223Z,100817.34
2018-01-21T06:09:03.543Z,100823.87
2018-01-21T06:11:32.022Z,100829.38
2018-01-21T06:14:00.334Z,100831.28
2018-01-21T06:16:28.635Z,100830.57
2018-01-21T06:18:57.241Z,100834.25
2018-01-21T06:21:26.324Z,100846.34
2018-01-21T06:23:54.639Z,100842.86
2018-01-21T06:26:23.013Z,100847.63
2018-01-21T06:28:51.365Z,100850.20
2018-01-21T06:31:19.733Z,100853.58
2018-01-21T06:33:48.128Z,100857.47
2018-01-21T06:36:17.211Z,100855.00
2018-01-21T06:38:45.531Z,100863.34
2018-01-21T06:41:14.096Z,100878.69
2018-01-21T06:43:42.423Z,100878.20
2018-01-21T06:46:10.740Z,100876.69
2018-01-21T06:48:39.112Z,100883.44
2018-01-21T06:51:07.444Z,100882.05
2018-01-21T06:53:35.764Z,100890.11
2018-01-21T06:56:04.107Z,100913.19
2018-01-21T06:58:32.396Z,100918.64
2018-01-21T07:01:00.719Z,100927.50
2018-01-21T07:03:29.923Z,100927.76
2018-01-21T07:05:58.278Z,100928.45
2018-01-21T07:08:26.615Z,100936.79
2018-01-21T07:10:54.970Z,100943.53
2018-01-21T07:13:23.328Z,100957.86
2018-01-21T07:15:52.429Z,100963.31
2018-01-21T07:18:21.564Z,100957.97
2018-01-21T07:20:49.886Z,100964.71
2018-01-21T07:23:18.203Z,100964.28
2018-01-21T07:25:46.951Z,100976.47
2018-01-21T07:28:15.273Z,100981.50
2018-01-21T07:30:43.616Z,100982.30
2018-01-21T07:33:11.972Z,100995.56
2018-01-21T07:35:40.307Z,100991.44
2018-01-21T07:38:08.592Z,100995.24
2018-01-21T07:40:36.922Z,101006.25
2018-01-21T07:43:05.251Z,101007.64
2018-01-21T07:45:33.565Z,101011.43
2018-01-21T07:48:02.177Z,101007.73
2018-01-21T07:50:30.799Z,101020.58
2018-01-21T07:52:59.131Z,101029.45
2018-01-21T07:55:27.476Z,101036.12
2018-01-21T07:57:55.792Z,101039.55
2018-01-21T08:00:24.100Z,101044.33
2018-01-21T08:02:52.430Z,101048.38
2018-01-21T08:05:20.751Z,101058.45
2018-01-21T08:07:49.067Z,101071.19
2018-01-21T08:10:17.757Z,101075.84
2018-01-21T08:12:46.837Z,101075.50
2018-01-21T08:15:15.146Z,101085.83
2018-01-21T08:17:43.468Z,101091.18
2018-01-21T08:20:11.809Z,101095.73
2018-01-21T08:22:40.150Z,101101.82
2018-01-21T08:25:08.476Z,101109.53
2018-01-21T08:27:36.807Z,101111.23
2018-01-21T08:30:05.115Z,101120.34
2018-01-21T08:32:33.803Z,101121.78
2018-01-21T08:35:07.674Z,101127.75
2018-01-21T08:37:41.395Z,101130.48
2018-01-21T08:40:15.092Z,101136.34
2018-01-21T08:42:43.823Z,101142.77
2018-01-21T08:45:12.904Z,101146.64
2018-01-21T08:47:41.223Z,101154.69
2018-01-21T08:50:09.764Z,101152.86
2018-01-21T08:52:38.085Z,101160.19
2018-01-21T08:55:06.408Z,101161.80
2018-01-21T08:57:35.524Z,101168.44
2018-01-21T09:00:03.810Z,101167.86
2018-01-21T09:02:32.100Z,101170.70
2018-01-21T09:05:01.191Z,101180.97
2018-01-21T09:07:29.516Z,101185.89
2018-01-21T09:09:57.827Z,101190.93
2018-01-21T09:12:26.921Z,101195.80
2018-01-21T09:14:55.248Z,101199.01
2018-01-21T09:17:23.545Z,101205.16
2018-01-21T09:19:51.905Z,101209.29
2018-01-21T09:22:20.215Z,101212.08
2018-01-21T09:24:48.547Z,101208.64
2018-01-21T09:27:16.899Z,101211.64
2018-01-21T09:29:45.986Z,101222.51
2018-01-21T09:32:14.285Z,101228.73
2018-01-21T09:34:43.776Z,101229.20
2018-01-21T09:37:12.095Z,101231.41
2018-01-21T09:39:40.440Z,101240.67
2018-01-21T09:42:09.352Z,101248.36
2018-01-21T09:44:38.427Z,101248.90
2018-01-21T09:47:06.728Z,101253.94
2018-01-21T09:49:35.805Z,101254.70
2018-01-21T09:52:04.124Z,101255.98
2018-01-21T09:54:32.444Z,101255.82
2018-01-21T09:57:01.302Z,101257.80
2018-01-21T09:59:29.751Z,101259.82
2018-01-21T10:01:58.083Z,101258.55
2018-01-21T10:04:26.419Z,101264.11
2018-01-21T10:06:54.836Z,101262.88
2018-01-21T10:09:23.143Z,101263.22
2018-01-21T10:11:51.491Z,101262.66
2018-01-21T10:14:19.804Z,101260.05
2018-01-21T10:16:48.106Z,101269.00
2018-01-21T10:19:16.746Z,101275.84
2018-01-21T10:21:45.064Z,101276.00
2018-01-21T10:24:14.181Z,101284.05
2018-01-21T10:26:42.536Z,101286.81
2018-01-21T10:29:11.603Z,101272.81
2018-01-21T10:31:39.897Z,101283.43
2018-01-21T10:34:09.082Z,101287.56
2018-01-21T10:36:37.396Z,101288.98
2018-01-21T10:39:05.690Z,101287.61
2018-01-21T10:41:34.517Z,101287.80
2018-01-21T10:44:02.839Z,101296.62
2018-01-21T10:46:31.155Z,101297.98
2018-01-21T10:48:59.516Z,101308.69
2018-01-21T10:51:27.837Z,101310.49
2018-01-21T10:53:56.142Z,101312.42
2018-01-21T10:56:24.491Z,101315.20
2018-01-21T10:58:52.792Z,101315.66
2018-01-21T11:01:21.868Z,101317.91
2018-01-21T11:03:50.683Z,101328.46
2018-01-21T11:06:19.008Z,101330.34
2018-01-21T11:08:47.340Z,101335.37
2018-01-21T11:11:16.463Z,101337.22
2018-01-21T11:13:44.784Z,101345.80
2018-01-21T11:16:13.100Z,101342.59
2018-01-21T11:18:41.437Z,101343.14
2018-01-21T11:21:09.725Z,101353.49
2018-01-21T11:23:38.051Z,101353.68
2018-01-21T11:26:06.578Z,101356.05
2018-01-21T11:28:34.900Z,101357.92
2018-01-21T11:31:03.221Z,101358.06
2018-01-21T11:33:32.348Z,101357.28
2018-01-21T11:36:01.443Z,101354.97
2018-01-21T11:38:30.053Z,101362.92
2018-01-21T11:40:58.396Z,101354.56
2018-01-21T11:43:26.697Z,101356.66
2018-01-21T11:45:55.759Z,101365.20
2018-01-21T11:48:24.389Z,101369.16
2018-01-21T11:50:52.688Z,101369.22
2018-01-21T11:53:21.106Z,101371.80
2018-01-21T11:55:49.454Z,101380.27
2018-01-21T11:58:17.766Z,101374.06
2018-01-21T12:00:46.089Z,101376.52
2018-01-21T12:03:14.443Z,101378.57
2018-01-21T12:05:43.525Z,101378.12
2018-01-21T12:08:11.842Z,101382.91
2018-01-21T12:10:40.248Z,101375.48
2018-01-21T12:13:08.582Z,101380.57
2018-01-21T12:15:36.903Z,101380.65
2018-01-21T12:18:05.248Z,101381.30
2018-01-21T12:20:33.596Z,101384.79
2018-01-21T12:23:01.943Z,101389.56
2018-01-21T12:25:30.244Z,101393.80
2018-01-21T12:27:58.578Z,101391.71
2018-01-21T12:30:26.909Z,101384.88
2018-01-21T12:32:55.459Z,101392.35
2018-01-21T12:35:23.811Z,101399.05
2018-01-21T12:37:52.121Z,101396.30
2018-01-21T12:40:20.944Z,101398.17
2018-01-21T12:42:49.335Z,101398.98
2018-01-21T12:45:17.597Z,101394.08
2018-01-21T12:47:45.917Z,101399.16
2018-01-21T12:50:14.266Z,101400.14
2018-01-21T12:52:42.883Z,101398.47
2018-01-21T12:55:11.784Z,101404.08
2018-01-21T12:57:40.092Z,101401.20
2018-01-21T13:00:08.403Z,101400.38
2018-01-21T13:02:37.606Z,101406.20
2018-01-21T13:05:05.912Z,101404.45
2018-01-21T13:07:34.203Z,101414.92
2018-01-21T13:10:02.558Z,101414.72
2018-01-21T13:12:30.859Z,101418.98
2018-01-21T13:14:59.224Z,101420.59
2018-01-21T13:17:27.704Z,101421.41
2018-01-21T13:19:56.009Z,101422.95
2018-01-21T13:22:24.302Z,101438.50
2018-01-21T13:24:52.655Z,101445.66
2018-01-21T13:27:20.966Z,101446.34
2018-01-21T13:29:49.276Z,101452.88
2018-01-21T13:32:17.619Z,101457.70
2018-01-21T13:34:45.981Z,101461.19
2018-01-21T13:37:14.339Z,101472.45
2018-01-21T13:39:42.901Z,101474.52
2018-01-21T13:42:11.334Z,101477.48
2018-01-21T13:44:39.814Z,101488.28
2018-01-21T13:47:08.175Z,101482.08
2018-01-21T13:49:36.479Z,101498.06
2018-01-21T13:52:04.763Z,101493.93
2018-01-21T13:54:33.147Z,101491.33
2018-01-21T13:57:02.386Z,101492.96
2018-01-21T13:59:30.816Z,101493.77
2018-01-21T14:01:59.805Z,101494.37
2018-01-21T14:04:28.189Z,101497.63
2018-01-21T14:06:56.511Z,101504.87
2018-01-21T14:09:24.842Z,101499.90
2018-01-21T14:11:53.212Z,101507.42
2018-01-21T14:14:21.575Z,101508.11
2018-01-21T14:16:50.045Z,101515.33
2018-01-21T14:19:18.465Z,101515.47
2018-01-21T14:21:46.820Z,101521.87
2018-01-21T14:24:15.706Z,101514.25
2018-01-21T14:26:44.100Z,101508.65
2018-01-21T14:29:12.495Z,101510.40
2018-01-21T14:31:40.866Z,101516.28
2018-01-21T14:34:09.220Z,101517.41
2018-01-21T14:36:37.541Z,101526.25
2018-01-21T14:39:06.666Z,101525.56
2018-01-21T14:41:35.045Z,101524.20
2018-01-21T14:44:03.491Z,101519.88
2018-01-21T14:46:32.379Z,101529.04
2018-01-21T14:49:00.757Z,101525.53
2018-01-21T14:51:29.132Z,101536.34
2018-01-21T14:53:57.512Z,101545.45
2018-01-21T14:56:25.847Z,101546.77
2018-01-21T14:58:54.193Z,101550.22
2018-01-21T15:01:23.348Z,101551.94
2018-01-21T15:03:51.672Z,101551.84
2018-01-21T15:06:20.771Z,101555.80
2018-01-21T15:08:50.384Z,101555.33
2018-01-21T15:11:18.710Z,101556.09
2018-01-21T15:13:47.016Z,101559.01
2018-01-21T15:16:15.358Z,101558.53
2018-01-21T15:18:43.689Z,101562.35
2018-01-21T15:21:12.012Z,101565.79
2018-01-21T15:23:40.352Z,101561.83
2018-01-21T15:26:09.415Z,101564.73
2018-01-21T15:28:37.718Z,101565.50
2018-01-21T15:31:07.116Z,101566.50
2018-01-21T15:33:35.455Z,101569.56
2018-01-21T15:36:03.781Z,101578.20
2018-01-21T15:38:32.908Z,101579.36
2018-01-21T15:41:01.216Z,101583.13
2018-01-21T15:43:29.560Z,101580.58
2018-01-21T15:45:57.928Z,101575.38
2018-01-21T15:48:26.534Z,101581.55
2018-01-21T15:50:54.913Z,101579.41
2018-01-21T15:53:23.349Z,101582.99
2018-01-21T15:55:52.417Z,101582.61
2018-01-21T15:58:20.738Z,101578.06
2018-01-21T16:00:49.061Z,101577.58
2018-01-21T16:03:17.385Z,101581.46
2018-01-21T16:05:46.496Z,101584.88
2018-01-21T16:08:14.865Z,101587.34
2018-01-21T16:10:43.216Z,101581.70
2018-01-21T16:13:11.526Z,101584.75
2018-01-21T16:15:40.260Z,101578.09
2018-01-21T16:18:09.367Z,101576.86
2018-01-21T16:20:37.697Z,101584.57
2018-01-21T16:23:06.059Z,101587.81
2018-01-21T16:25:34.356Z,101597.78
2018-01-21T16:28:02.703Z,101596.88
2018-01-21T16:30:31.831Z,101597.75
2018-01-21T16:33:00.128Z,101600.09
2018-01-21T16:35:28.415Z,101606.63
2018-01-21T16:38:14.429Z,101599.33
2018-01-21T16:40:42.733Z,101608.84
2018-01-21T16:43:11.823Z,101601.24
2018-01-21T16:45:40.942Z,101599.56
2018-01-21T16:48:09.336Z,101597.85
2018-01-21T16:50:37.746Z,101604.39
2018-01-21T16:53:06.166Z,101603.78
2018-01-21T16:55:35.288Z,101604.16
2018-01-21T16:58:03.632Z,101595.45
2018-01-21T17:00:33.048Z,101594.59
2018-01-21T17:03:02.284Z,101598.56
2018-01-21T17:05:30.696Z,101591.00
2018-01-21T17:07:59.085Z,101579.05
2018-01-21T17:10:27.396Z,101583.09
2018-01-21T17:12:56.464Z,101583.44
2018-01-21T17:15:24.798Z,101567.74
2018-01-21T17:17:53.135Z,101569.91
2018-01-21T17:20:21.464Z,101568.41
2018-01-21T17:22:50.280Z,101573.08
2018-01-21T17:25:18.600Z,101578.30
2018-01-21T17:27:46.915Z,101580.78
2018-01-21T17:30:15.238Z,101580.22
2018-01-21T17:32:44.370Z,101574.45
2018-01-21T17:35:12.697Z,101570.89
2018-01-21T17:37:41.060Z,101570.88
2018-01-21T17:40:09.407Z,101568.36
2018-01-21T17:42:37.725Z,101571.81
2018-01-21T17:45:06.380Z,101570.42
2018-01-21T17:47:34.706Z,101570.95
2018-01-21T17:50:03.056Z,101572.37
2018-01-21T17:52:31.399Z,101578.55
2018-01-21T17:54:59.751Z,101577.63
2018-01-21T17:57:28.092Z,101577.59
2018-01-21T17:59:56.432Z,101582.21
2018-01-21T18:02:24.768Z,101584.75
2018-01-21T18:04:53.644Z,101587.69
2018-01-21T18:07:22.387Z,101588.08
2018-01-21T18:09:50.682Z,101589.11
2018-01-21T18:12:19.037Z,101587.22
2018-01-21T18:14:47.345Z,101582.55
2018-01-21T18:17:15.638Z,101584.36
2018-01-21T18:19:43.933Z,101582.55
2018-01-21T18:22:12.245Z,101579.64
2018-01-21T18:24:40.546Z,101587.24
2018-01-21T18:27:08.831Z,101579.22
2018-01-21T18:29:37.476Z,101571.61
2018-01-21T18:32:06.648Z,101572.63
2018-01-21T18:34:34.972Z,101574.86
2018-01-21T18:37:04.436Z,101569.94
2018-01-21T18:39:32.773Z,101566.72
2018-01-21T18:42:01.099Z,101575.09
2018-01-21T18:44:30.225Z,101578.84
2018-01-21T18:46:58.551Z,101587.03
2018-01-21T18:49:26.913Z,101583.60
2018-01-21T18:51:55.680Z,101584.83
2018-01-21T18:54:23.996Z,101593.37
2018-01-21T18:56:53.829Z,101595.77
2018-01-21T18:59:22.146Z,101593.29
2018-01-21T19:01:50.472Z,101585.03
2018-01-21T19:04:18.796Z,101573.36
2018-01-21T19:06:47.195Z,101581.56
2018-01-21T19:11:38.596Z,101571.42
2018-01-21T19:14:07.100Z,101566.74
2018-01-21T19:16:35.417Z,101571.41
2018-01-21T19:19:03.759Z,101566.30
2018-01-21T19:21:32.132Z,101572.25
2018-01-21T19:24:00.799Z,101574.59
2018-01-21T19:26:29.132Z,101577.89
2018-01-21T19:28:57.549Z,101571.80
2018-01-21T19:31:25.868Z,101574.75
2018-01-21T19:33:54.169Z,101563.09
2018-01-21T19:36:23.168Z,101565.34
2018-01-21T19:38:52.354Z,101570.69
2018-01-21T19:44:37.410Z,101589.29
2018-01-21T19:47:05.788Z,101589.84
2018-01-21T19:49:34.104Z,101565.66
2018-01-21T19:52:02.428Z,101564.18
2018-01-21T19:54:31.300Z,101554.61
2018-01-21T19:56:59.622Z,101544.47
2018-01-21T19:59:27.959Z,101534.36
2018-01-21T20:01:57.092Z,101542.03
2018-01-21T20:04:25.411Z,101544.02
2018-01-21T20:06:53.711Z,101548.72
2018-01-21T20:09:22.047Z,101543.36
2018-01-21T20:11:50.345Z,101543.98
2018-01-21T20:14:18.637Z,101538.41
2018-01-21T20:16:47.049Z,101533.78
2018-01-21T20:19:15.396Z,101528.33
2018-01-21T20:21:43.727Z,101521.34
2018-01-21T20:24:12.064Z,101515.41
2018-01-21T20:26:40.385Z,101509.41
2018-01-21T20:29:08.697Z,101513.73
2018-01-21T20:31:37.030Z,101509.50
2018-01-21T20:34:05.364Z,101501.07
2018-01-21T20:36:33.693Z,101500.48
2018-01-21T20:39:02.208Z,101491.94
2018-01-21T20:41:30.586Z,101488.38
2018-01-21T20:43:58.899Z,101484.52
2018-01-21T20:46:27.247Z,101485.66
2018-01-21T20:48:55.539Z,101481.73
2018-01-21T20:51:29.415Z,101489.70
2018-01-21T20:54:03.188Z,101481.00
2018-01-21T20:56:32.154Z,101473.71
2018-01-21T20:59:00.453Z,101480.87
2018-01-21T21:01:28.788Z,101477.05
2018-01-21T21:03:57.139Z,101487.10
2018-01-21T21:06:25.460Z,101476.95
2018-01-21T21:08:53.813Z,101477.94
2018-01-21T21:11:22.856Z,101488.33
2018-01-21T21:13:51.185Z,101485.18
2018-01-21T21:16:19.496Z,101478.45
2018-01-21T21:18:48.145Z,101484.12
2018-01-21T21:21:16.479Z,101480.66
2018-01-21T21:23:45.564Z,101475.89
2018-01-21T21:26:14.701Z,101477.37
2018-01-21T21:28:43.044Z,101471.37
2018-01-21T21:31:12.172Z,101461.38
2018-01-21T21:33:40.540Z,101468.25
2018-01-21T21:36:08.860Z,101479.64
2018-01-21T21:38:37.295Z,101477.80
2018-01-21T21:41:05.861Z,101477.98
2018-01-21T21:43:34.413Z,101478.80
2018-01-21T21:46:02.722Z,101469.33
2018-01-21T21:48:31.834Z,101457.67
2018-01-21T21:51:00.968Z,101469.45
2018-01-21T21:53:29.352Z,101468.19
2018-01-21T21:55:57.684Z,101464.12
2018-01-21T21:58:26.768Z,101476.61
2018-01-21T22:00:55.837Z,101468.89
2018-01-21T22:03:24.444Z,101452.39
2018-01-21T22:05:52.905Z,101447.94
2018-01-21T22:08:21.254Z,101450.55
2018-01-21T22:10:49.628Z,101442.88
2018-01-21T22:13:17.964Z,101442.14
2018-01-21T22:15:47.024Z,101441.38
2018-01-21T22:18:15.404Z,101445.77
2018-01-21T22:20:43.768Z,101440.87
2018-01-21T22:23:12.322Z,101434.02
2018-01-21T22:25:40.977Z,101437.55
2018-01-21T22:28:09.313Z,101431.88
2018-01-21T22:30:37.619Z,101433.58
2018-01-21T22:33:05.971Z,101430.61
2018-01-21T22:35:34.272Z,101417.42
2018-01-21T22:38:02.680Z,101413.73
2018-01-21T22:40:31.794Z,101400.19
2018-01-21T22:43:00.116Z,101397.38
2018-01-21T22:45:28.747Z,101400.45
2018-01-21T22:47:58.184Z,101404.81
2018-01-21T22:50:26.491Z,101412.03
2018-01-21T22:52:54.838Z,101410.41
2018-01-21T22:55:23.192Z,101410.39
2018-01-21T22:57:52.272Z,101401.78
2018-01-21T23:00:20.590Z,101404.70
2018-01-21T23:02:48.923Z,101395.84
2018-01-21T23:05:17.213Z,101396.13
2018-01-21T23:07:46.303Z,101389.40
2018-01-21T23:10:15.919Z,101386.89
2018-01-21T23:12:44.979Z,101379.09
2018-01-21T23:15:13.264Z,101383.02
2018-01-21T23:17:41.588Z,101385.33
2018-01-21T23:20:09.918Z,101374.73
2018-01-21T23:22:39.017Z,101367.39
2018-01-21T23:25:07.353Z,101372.16
2018-01-21T23:27:35.656Z,101374.68
2018-01-21T23:30:04.002Z,101384.03
2018-01-21T23:32:32.657Z,101378.39
2018-01-21T23:35:01.744Z,101373.45
2018-01-21T23:37:30.080Z,101373.77
2018-01-21T23:39:58.396Z,101369.70
2018-01-21T23:42:26.688Z,101367.41
2018-01-21T23:44:55.754Z,101363.91
2018-01-21T23:47:24.120Z,101380.00
2018-01-21T23:49:52.436Z,101364.45
2018-01-21T23:52:20.738Z,101364.55
2018-01-21T23:54:49.580Z,101353.92
2018-01-21T23:57:17.894Z,101344.94
2018-01-21T23:59:46.232Z,101346.48
